Friedrich Kuhn

Scout - SC Freiburg
3 Apr 2027
Samstag
Verarbeitung

Persönlichkeit

Anpassungsfähigkeit (7) Ehrgeiz (10) Kontroverse (10) Loyalität (16) Druck (8) Professionalität (13) Fairness (17) Temperament (8)

Profil

Trainerstil Demokratisch
Lizenz Kontinentale A
Entschlossenheit 11
Menschenführung 11
Motivation 14
Disziplin 12
Arbeitszufriedenheit
61%
Ermüdung
0%
Rolle Scout
Gehalt 75.4K p/W
Vertrag 14.03.2028

Leistung

Verhalten Gut
Trainingseffektivität
32%
Spielerentwicklung
40%
Verletzungsprävention
30%
Taktische Umsetzung
55%

Letzte Ereignisse

Nahm an einer Scouting-Besprechung teil 7T her
Nahm an einer Scouting-Besprechung teil 7T her
Nahm an einer Scouting-Besprechung teil 14T her
Nahm an einer Scouting-Besprechung teil 14T her
Nahm an einer Scouting-Besprechung teil 21T her
Nahm an einer Scouting-Besprechung teil 21T her
Geburtstag 21T her
Nahm an einer Scouting-Besprechung teil 28T her

Aktuell beobachtet

135
Spieler Verein Status Fähigkeit Vertrauen Beobachtet Zuletzt beobachtet Letzte Stimme
Mika Mármol Feyenoord Aktiv 133 / 131 40% 1 13.01.2027 -
Gabriel Sara Galatasaray Aktiv 139 / 136 40% 1 13.01.2027 -
Ngal'Ayel Mukau LOSC Lille Aktiv 142 / 148 40% 1 13.01.2027 -
Josh Coburn Millwall Aktiv 118 / 111 40% 4 31.12.2026 -
Sorriso Famalicao Aktiv 132 / 118 40% 5 31.12.2026 -
Brayan Gil Baltika Aktiv 126 / 137 40% 1 31.12.2026 -
Marco Pineda VfB Stuttgart Aktiv 144 / 151 40% 4 30.12.2026 -
Mateo Cassierra Atlético Mineiro Aktiv 132 / 141 40% 3 30.12.2026 -
Mehdi Ghayedi Al Nasr Aktiv 125 / 111 40% 3 30.12.2026 -
Radek Vítek Middlesbrough Aktiv 140 / 138 40% 4 29.12.2026 -
Igor Nikić Mirandés Aktiv 123 / 127 40% 2 29.12.2026 -
Iñaki Peña Panathinaikos Aktiv 150 / 158 40% 1 29.12.2026 -
Leandro Trossard Besiktas Aktiv 156 / 165 40% 6 27.12.2026 -
Nicolò Tresoldi Club Brugge Aktiv 135 / 145 40% 6 27.12.2026 -
Fashion Sakala Al-Fayha Aktiv 129 / 107 40% 3 27.12.2026 -
Jakub Stolarczyk Leicester City Aktiv 139 / 126 40% 3 26.12.2026 -
Memphis Depay Corinthians Aktiv 155 / 163 40% 5 26.12.2026 -
Pascal Loretz Luzern Aktiv 125 / 128 40% 3 26.12.2026 -
George Wickens Lincoln City Aktiv 110 / 127 40% 2 26.12.2026 -
Florián Monzón Atlas Aktiv 118 / 115 40% 3 25.12.2026 -
Josias Lukembila Sion Aktiv 116 / 129 40% 4 25.12.2026 -
Will Lankshear Middlesbrough Aktiv 124 / 119 40% 1 25.12.2026 -
Michy Fellaini KV Oostende Aktiv 135 / 133 40% 4 23.12.2026 -
Moussa Dembélé Al-Ettifaq Aktiv 125 / 149 40% 2 23.12.2026 -
Cesar Corona Veracruz Aktiv 141 / 136 40% 9 22.12.2026 -
Nicolás Ibáñez Cruz Azul Aktiv 140 / 123 40% 5 22.12.2026 -
Mathias Pereira Lage St. Pauli Aktiv 138 / 124 40% 2 22.12.2026 -
Carlos Vinícius Grêmio Aktiv 142 / 154 40% 3 21.12.2026 -
Achraf Bencharki Al Ahly Aktiv 131 / 121 40% 4 21.12.2026 -
Juan Carlos Arana Racing Santander Aktiv 126 / 135 40% 3 20.12.2026 -
Gonzalo Plata Dinamo Moscow Aktiv 129 / 136 40% 2 20.12.2026 -
Soufiane Rahimi Al Ain Aktiv 130 / 144 40% 1 18.12.2026 -
José Arnáiz Granada Aktiv 133 / 132 40% 3 16.12.2026 -
Nicolás Fernández Belgrano Aktiv 134 / 106 40% 1 16.12.2026 -
Luciano Gondou CSKA Moscow Aktiv 139 / 145 40% 1 15.12.2026 -
Alexis Vega Toluca Aktiv 154 / 136 40% 7 12.12.2026 -
Munir Albacete Aktiv 125 / 122 40% 4 12.12.2026 -
Adriano Bertaccini Anderlecht Aktiv 130 / 113 40% 1 11.12.2026 -
Martijn Kaars St. Pauli Aktiv 124 / 110 40% 1 11.12.2026 -
Chupete Málaga Aktiv 122 / 142 40% 1 11.12.2026 -
Mads Hedenstad AGF Aktiv 120 / 130 40% 1 11.12.2026 -
Carl Rushworth Coventry City Aktiv 141 / 133 40% 2 09.12.2026 -
Elia Caprile Cagliari Aktiv 139 / 155 40% 1 09.12.2026 -
Sem Westerveld Zaragoza Aktiv 118 / 107 40% 1 09.12.2026 -
Pedro Flamengo Aktiv 140 / 124 40% 2 08.12.2026 -
Rey Manaj Sivasspor Aktiv 124 / 136 40% 1 08.12.2026 -
Hany Mukhtar Hamburger SV Aktiv 133 / 126 40% 1 08.12.2026 -
Paulinho Palmeiras Aktiv 151 / 156 40% 4 03.12.2026 -
Ferran Jutglà Celta Aktiv 136 / 135 40% 1 03.12.2026 -
Jason Januzaj Mouscron Aktiv 151 / 138 40% 4 01.12.2026 -
Maurits Kjærgaard Red Bull Salzburg Aktiv 134 / 142 40% 6 30.11.2026 -
Duk Atlas Aktiv 116 / 127 40% 1 30.11.2026 -
Chris Brady Chicago Fire Aktiv 122 / 127 40% 2 29.11.2026 -
Justin Hammel Grasshopper Aktiv 124 / 110 40% 3 29.11.2026 -
Gabriel Brazão Santos Aktiv 129 / 119 40% 1 29.11.2026 -
Yorbe Vertessen Red Bull Salzburg Aktiv 131 / 115 40% 5 27.11.2026 -
Musa Barrow Al-Khaleej Aktiv 133 / 143 40% 4 23.11.2026 -
Andrin Hunziker St. Gallen Aktiv 113 / 121 40% 4 22.11.2026 -
Sinan Karweina Luzern Aktiv 113 / 105 40% 4 22.11.2026 -
Guilherme Fernandes Córdoba Aktiv 135 / 125 40% 1 22.11.2026 -
Grégoire Coudert Burnley Aktiv 127 / 128 40% 1 22.11.2026 -
Robin Risser RC Lens Aktiv 139 / 148 40% 1 21.11.2026 -
Jean-Luc Morin Tours Verloren 138 / 146 40% 7 19.11.2026 Beobachten
Jorge Pascual Granada Aktiv 130 / 144 40% 5 19.11.2026 Beobachten
Exequiel Zeballos Boca Juniors Aktiv 138 / 140 40% 6 18.11.2026 -
James Trafford Leeds United Aktiv 142 / 135 40% 1 18.11.2026 -
Christian Früchtl Red Bull Salzburg Aktiv 112 / 112 40% 1 18.11.2026 -
Talisca Fenerbahce Verloren 149 / 130 40% 4 17.11.2026 -
Rilind Nivokazi Sion Aktiv 113 / 108 40% 2 15.11.2026 -
Dejan Djokic Vaduz Aktiv 96 / 109 40% 4 15.11.2026 -
Ousmane Camara Castellón Aktiv 124 / 117 40% 1 15.11.2026 -
Alan Velasco Boca Juniors Aktiv 130 / 119 40% 7 10.11.2026 -
Juan-José Perea Zurich Aktiv 123 / 128 40% 1 09.11.2026 -
Matteo di Giusto Luzern Aktiv 126 / 128 40% 2 08.11.2026 -
Urko Izeta Cádiz Aktiv 129 / 132 40% 3 08.11.2026 -
Mousa Meunier KV Oostende Aktiv 130 / 125 40% 1 08.11.2026 -
Luca Orellano Monterrey Aktiv 137 / 127 40% 3 07.11.2026 -
Tom Cannon Sheffield United Aktiv 128 / 137 40% 1 07.11.2026 -
Richard Koné Queens Park Rangers Aktiv 118 / 115 40% 1 05.11.2026 -
Efraín Álvarez Guadalajara Aktiv 133 / 130 40% 3 02.11.2026 -
Lukas Gütlbauer Wolfsberger AC Aktiv 111 / 113 40% 1 01.11.2026 -
Bertrand Traoré Sunderland Aktiv 136 / 137 40% 1 30.10.2026 -
José Manuel López Palmeiras Aktiv 140 / 145 40% 1 24.10.2026 -
Robin Roefs Sunderland Aktiv 139 / 153 40% 1 24.10.2026 -
Mauro Silveira Junior Aktiv 125 / 126 40% 1 24.10.2026 -
Marvin Keller Young Boys Aktiv 133 / 147 40% 1 24.10.2026 -
Anthony Patterson Wrexham Aktiv 133 / 122 40% 2 23.10.2026 -
Jamie Cumming Oxford United Aktiv 117 / 110 40% 2 23.10.2026 -
Jon Bautista Eibar Aktiv 124 / 136 40% 2 21.10.2026 -
Kévin Denkey FC Cincinnati Aktiv 128 / 110 40% 2 18.10.2026 -
Talles Magno New York City Aktiv 122 / 117 40% 4 16.10.2026 -
Yuma Suzuki Kashima Antlers Aktiv 136 / 134 40% 2 16.10.2026 -
Diego López Valencia Aktiv 142 / 147 40% 1 15.10.2026 -
Leo Ceara Kashima Antlers Aktiv 140 / 156 40% 2 10.10.2026 -
Dániel Gazdag Columbus Crew Aktiv 125 / 147 40% 2 10.10.2026 -
Luis Vázquez Birmingham Aktiv 134 / 121 40% 1 10.10.2026 -
Niklas Steffen Thun Aktiv 123 / 110 40% 2 07.10.2026 -
Nicolás Sumavil Platense Aktiv 118 / 117 40% 2 07.10.2026 -
Michael Cooper Sheffield United Aktiv 123 / 128 40% 1 07.10.2026 -
Sam Surridge Nashville SC Aktiv 139 / 135 40% 2 06.10.2026 -
Manfred Ugalde Spartak Moscow Aktiv 137 / 136 40% 2 03.10.2026 -
Ángel Correa River Plate Aktiv 134 / 158 40% 2 01.10.2026 -
Oli McBurnie Hull City Aktiv 129 / 133 40% 4 30.09.2026 -
Kostantis Tzolakis Hull City Aktiv 135 / 147 40% 1 28.09.2026 -
Diego Conde Villarreal Aktiv 131 / 126 40% 1 28.09.2026 -
Anthony Racioppi Sion Aktiv 119 / 111 40% 1 27.09.2026 -
Sebastián Villa Boca Juniors Aktiv 120 / 144 40% 1 24.09.2026 -
Luiz Júnior Villarreal Aktiv 142 / 149 40% 3 19.09.2026 -
Patrick Schulte Columbus Crew Aktiv 128 / 138 40% 1 19.09.2026 -
Karl Hein Werder Bremen Aktiv 128 / 147 40% 1 19.09.2026 -
Tim Kleindienst Borussia Mönchengladbach Aktiv 149 / 151 40% 3 17.09.2026 -
Diber Cambindo Leon Aktiv 120 / 146 40% 1 17.09.2026 -
Toni Martínez Alavés Aktiv 133 / 127 40% 1 16.09.2026 -
Ignacio Russo Tigre Aktiv 118 / 147 40% 1 15.09.2026 -
Agustín Venezia Iquique Aktiv 110 / 105 40% 1 15.09.2026 -
Jefry Zapata Once Caldas Aktiv 126 / 122 40% 1 15.09.2026 -
Arijanet Murić Sassuolo Aktiv 137 / 129 40% 1 14.09.2026 -
Jonas Urbig Bayern Munich Aktiv 134 / 125 40% 1 14.09.2026 -
Andrés Martín Racing Santander Aktiv 130 / 130 40% 1 10.09.2026 -
Cristian Barros Cerro Aktiv 102 / 116 40% 1 07.09.2026 -
Tomás Chancalay Minnesota United FC Aktiv 124 / 137 40% 1 06.09.2026 -
Philippe Keny Zurich Aktiv 116 / 107 40% 1 05.09.2026 -
Vitor Roque Palmeiras Aktiv 132 / 161 40% 1 04.09.2026 -
Lucas Boyé Alavés Aktiv 143 / 151 40% 1 03.09.2026 -
Gorka Guruzeta Athletic Bilbao Aktiv 146 / 139 40% 1 03.09.2026 -
Diego Rossi Monterrey Aktiv 126 / 132 40% 1 02.09.2026 -
Martin Terrier Bayer Leverkusen Aktiv 137 / 127 40% 1 02.09.2026 -
Lucas Ocampos West Ham United Aktiv 147 / 141 40% 1 31.08.2026 -
Uwe Franke Mouscron Aktiv 125 / 135 40% 1 21.08.2026 -
Petar Musa FC Dallas Aktiv 140 / 141 40% 1 21.08.2026 -
Christian Kofane Bayer Leverkusen Aktiv 132 / 129 40% 1 21.08.2026 -
Nikolaus Wurmbrand Brighton Aktiv 113 / 126 40% 1 19.08.2026 -
Jean-Mattéo Bahoya Eintracht Frankfurt Aktiv 136 / 136 40% 1 19.08.2026 -
Leo Castledine Middlesbrough Aktiv 125 / 140 40% 1 19.08.2026 -
Can Uzun Eintracht Frankfurt Aktiv 134 / 132 40% 1 01.08.2026 -